createdAt,value
2017-09-15T00:02:20.490Z,10.00
2017-09-15T00:04:48.039Z,10.00
2017-09-15T00:07:15.571Z,10.00
2017-09-15T00:09:43.114Z,10.00
2017-09-15T00:12:10.631Z,10.00
2017-09-15T00:14:38.175Z,10.00
2017-09-15T00:17:05.695Z,10.00
2017-09-15T00:19:33.240Z,10.00
2017-09-15T00:22:01.534Z,10.00
2017-09-15T00:24:29.081Z,10.00
2017-09-15T00:26:57.371Z,10.00
2017-09-15T00:29:24.915Z,10.00
2017-09-15T00:31:52.456Z,10.00
2017-09-15T00:34:20.006Z,10.00
2017-09-15T00:36:47.535Z,10.00
2017-09-15T00:39:15.080Z,10.00
2017-09-15T00:41:42.607Z,10.00
2017-09-15T00:44:10.919Z,10.00
2017-09-15T00:46:38.442Z,10.00
2017-09-15T00:49:05.983Z,10.00
2017-09-15T00:51:33.522Z,10.00
2017-09-15T00:54:01.068Z,9.90
2017-09-15T00:56:28.586Z,9.90
2017-09-15T00:58:56.128Z,10.00
2017-09-15T01:01:24.410Z,10.00
2017-09-15T01:03:52.708Z,9.90
2017-09-15T01:06:20.992Z,9.90
2017-09-15T01:08:48.540Z,9.90
2017-09-15T01:11:16.837Z,9.90
2017-09-15T01:13:44.370Z,9.90
2017-09-15T01:16:12.657Z,10.00
2017-09-15T01:18:40.967Z,10.00
2017-09-15T01:21:08.494Z,10.00
2017-09-15T01:23:36.799Z,9.90
2017-09-15T01:26:04.316Z,9.90
2017-09-15T01:28:31.838Z,9.90
2017-09-15T01:30:59.380Z,10.00
2017-09-15T01:33:27.663Z,9.90
2017-09-15T01:35:55.970Z,9.90
2017-09-15T01:38:23.494Z,9.90
2017-09-15T01:40:51.807Z,9.80
2017-09-15T01:43:19.323Z,9.80
2017-09-15T01:45:46.858Z,9.80
2017-09-15T01:48:14.383Z,9.90
2017-09-15T01:50:41.925Z,9.90
2017-09-15T01:53:10.207Z,9.90
2017-09-15T01:55:38.515Z,9.90
2017-09-15T01:58:06.040Z,9.90
2017-09-15T02:00:34.344Z,9.90
2017-09-15T02:03:01.854Z,9.90
2017-09-15T02:05:29.395Z,9.90
2017-09-15T02:07:56.912Z,10.00
2017-09-15T02:10:24.459Z,9.90
2017-09-15T02:12:51.974Z,9.90
2017-09-15T02:15:19.507Z,9.90
2017-09-15T02:17:47.801Z,10.00
2017-09-15T02:20:15.348Z,10.00
2017-09-15T02:22:43.634Z,10.00
2017-09-15T02:25:11.184Z,10.00
2017-09-15T02:27:39.472Z,10.00
2017-09-15T02:30:07.017Z,10.00
2017-09-15T02:32:35.318Z,10.00
2017-09-15T02:35:02.859Z,10.00
2017-09-15T02:37:31.147Z,9.90
2017-09-15T02:39:58.683Z,9.90
2017-09-15T02:42:26.966Z,9.80
2017-09-15T02:44:55.273Z,9.80
2017-09-15T02:47:22.797Z,9.80
2017-09-15T02:49:50.342Z,9.80
2017-09-15T02:52:17.863Z,9.80
2017-09-15T02:54:46.162Z,9.70
2017-09-15T02:57:13.679Z,9.70
2017-09-15T02:59:41.222Z,9.70
2017-09-15T03:02:08.747Z,9.70
2017-09-15T03:04:36.279Z,9.70
2017-09-15T03:07:04.559Z,9.70
2017-09-15T03:09:32.088Z,9.70
2017-09-15T03:11:59.615Z,9.70
2017-09-15T03:14:27.147Z,9.70
2017-09-15T03:16:54.662Z,9.70
2017-09-15T03:19:22.198Z,9.70
2017-09-15T03:21:49.723Z,9.80
2017-09-15T03:24:17.259Z,9.80
2017-09-15T03:26:45.549Z,9.70
2017-09-15T03:29:13.103Z,9.70
2017-09-15T03:31:41.387Z,9.80
2017-09-15T03:34:08.906Z,9.70
2017-09-15T03:36:36.451Z,9.80
2017-09-15T03:39:03.979Z,9.80
2017-09-15T03:41:31.515Z,9.80
2017-09-15T03:43:59.034Z,9.80
2017-09-15T03:46:26.571Z,9.90
2017-09-15T03:48:54.090Z,9.90
2017-09-15T03:51:21.627Z,9.90
2017-09-15T03:53:49.146Z,9.90
2017-09-15T03:56:16.683Z,9.80
2017-09-15T03:58:44.963Z,9.90
2017-09-15T04:01:13.263Z,9.90
2017-09-15T04:03:40.783Z,9.90
2017-09-15T04:06:08.322Z,9.90
2017-09-15T04:08:35.839Z,9.90
2017-09-15T04:11:03.349Z,9.90
2017-09-15T04:13:30.891Z,9.90
2017-09-15T04:15:58.402Z,9.90
2017-09-15T04:18:25.944Z,9.90
2017-09-15T04:20:53.467Z,9.90
2017-09-15T04:23:21.003Z,9.80
2017-09-15T04:25:48.520Z,9.90
2017-09-15T04:28:16.050Z,9.80
2017-09-15T04:30:43.566Z,9.80
2017-09-15T04:33:11.867Z,9.80
2017-09-15T04:35:39.375Z,9.80
2017-09-15T04:38:06.930Z,9.80
2017-09-15T04:40:34.461Z,9.90
2017-09-15T04:43:01.978Z,9.80
2017-09-15T04:45:30.279Z,9.90
2017-09-15T04:47:57.807Z,9.90
2017-09-15T04:50:25.343Z,9.90
2017-09-15T04:52:52.871Z,9.90
2017-09-15T04:55:20.402Z,9.90
2017-09-15T04:57:48.684Z,9.80
2017-09-15T05:00:16.223Z,9.80
2017-09-15T05:02:43.750Z,9.80
2017-09-15T05:05:11.290Z,9.80
2017-09-15T05:07:38.806Z,9.90
2017-09-15T05:10:07.120Z,9.90
2017-09-15T05:12:34.636Z,9.90
2017-09-15T05:15:02.159Z,9.90
2017-09-15T05:17:29.697Z,10.00
2017-09-15T05:19:57.981Z,10.00
2017-09-15T05:22:26.280Z,10.00
2017-09-15T05:24:53.799Z,10.00
2017-09-15T05:27:21.342Z,10.10
2017-09-15T05:29:48.867Z,10.10
2017-09-15T05:32:16.407Z,10.10
2017-09-15T05:34:43.939Z,10.20
2017-09-15T05:37:11.496Z,10.20
2017-09-15T05:39:39.015Z,10.20
2017-09-15T05:42:06.538Z,10.20
2017-09-15T05:44:34.871Z,10.20
2017-09-15T05:47:02.383Z,10.20
2017-09-15T05:49:29.922Z,10.20
2017-09-15T05:51:58.207Z,10.20
2017-09-15T05:54:26.510Z,10.30
2017-09-15T05:56:54.027Z,10.30
2017-09-15T05:59:22.325Z,10.40
2017-09-15T06:01:49.851Z,10.40
2017-09-15T06:04:18.164Z,10.50
2017-09-15T06:06:45.689Z,10.50
2017-09-15T06:09:13.212Z,10.50
2017-09-15T06:11:40.747Z,10.60
2017-09-15T06:14:08.265Z,10.70
2017-09-15T06:16:35.815Z,10.80
2017-09-15T06:19:03.331Z,10.90
2017-09-15T06:21:30.874Z,10.90
2017-09-15T06:23:59.154Z,11.20
2017-09-15T06:26:26.698Z,11.20
2017-09-15T06:28:54.215Z,11.30
2017-09-15T06:31:21.774Z,11.30
2017-09-15T06:33:49.869Z,11.50
2017-09-15T06:36:17.383Z,11.50
2017-09-15T06:38:45.687Z,11.60
2017-09-15T06:41:13.203Z,11.60
2017-09-15T06:43:40.739Z,11.60
2017-09-15T06:46:09.023Z,11.60
2017-09-15T06:48:36.558Z,11.60
2017-09-15T06:51:04.075Z,11.50
2017-09-15T06:53:32.382Z,11.40
2017-09-15T06:55:59.907Z,11.30
2017-09-15T06:58:28.194Z,11.30
2017-09-15T07:00:55.730Z,11.30
2017-09-15T07:03:24.025Z,11.40
2017-09-15T07:05:51.563Z,11.40
2017-09-15T07:08:19.092Z,11.50
2017-09-15T07:10:46.630Z,11.50
2017-09-15T07:13:14.151Z,11.50
2017-09-15T07:15:41.695Z,11.50
2017-09-15T07:18:09.984Z,11.50
2017-09-15T07:20:37.506Z,11.50
2017-09-15T07:23:05.042Z,11.60
2017-09-15T07:25:33.335Z,11.70
2017-09-15T07:28:00.874Z,11.70
2017-09-15T07:30:29.163Z,11.90
2017-09-15T07:32:57.462Z,11.90
2017-09-15T07:35:24.986Z,11.90
2017-09-15T07:37:53.300Z,11.90
2017-09-15T07:40:20.815Z,11.90
2017-09-15T07:42:49.140Z,12.10
2017-09-15T07:45:16.660Z,12.10
2017-09-15T07:47:44.942Z,12.20
2017-09-15T07:50:13.251Z,12.40
2017-09-15T07:52:40.774Z,12.40
2017-09-15T07:55:09.078Z,12.80
2017-09-15T07:57:36.599Z,12.80
2017-09-15T08:00:04.146Z,12.90
2017-09-15T08:02:31.659Z,13.00
2017-09-15T08:04:59.205Z,13.10
2017-09-15T08:07:26.731Z,13.30
2017-09-15T08:09:54.270Z,13.30
2017-09-15T08:12:21.786Z,13.30
2017-09-15T08:14:49.332Z,13.20
2017-09-15T08:17:17.610Z,13.00
2017-09-15T08:19:45.132Z,13.00
2017-09-15T08:22:13.437Z,12.60
2017-09-15T08:24:40.959Z,12.60
2017-09-15T08:27:08.494Z,12.50
2017-09-15T08:29:36.014Z,12.50
2017-09-15T08:32:03.553Z,12.50
2017-09-15T08:34:31.078Z,12.60
2017-09-15T08:36:58.610Z,12.60
2017-09-15T08:39:26.131Z,12.60
2017-09-15T08:41:53.672Z,12.70
2017-09-15T08:44:21.196Z,13.00
2017-09-15T08:46:48.740Z,13.20
2017-09-15T08:49:16.268Z,13.40
2017-09-15T08:51:43.811Z,13.50
2017-09-15T08:54:11.339Z,13.50
2017-09-15T08:56:38.878Z,13.40
2017-09-15T08:59:06.398Z,13.20
2017-09-15T09:01:33.932Z,13.10
2017-09-15T09:04:02.215Z,13.00
2017-09-15T09:06:30.520Z,12.90
2017-09-15T09:08:58.043Z,12.90
2017-09-15T09:11:26.342Z,12.80
2017-09-15T09:13:53.863Z,12.80
2017-09-15T09:16:21.398Z,12.80
2017-09-15T09:18:48.914Z,12.70
2017-09-15T09:21:16.459Z,12.70
2017-09-15T09:23:43.998Z,12.80
2017-09-15T09:26:11.533Z,13.00
2017-09-15T09:28:39.054Z,13.10
2017-09-15T09:31:06.591Z,13.20
2017-09-15T09:33:34.111Z,13.30
2017-09-15T09:36:02.415Z,13.40
2017-09-15T09:38:29.937Z,13.30
2017-09-15T09:40:58.243Z,13.30
2017-09-15T09:43:25.759Z,13.30
2017-09-15T09:45:54.067Z,13.40
2017-09-15T09:48:21.594Z,13.40
2017-09-15T09:50:49.903Z,13.80
2017-09-15T09:53:17.420Z,13.80
2017-09-15T09:55:45.736Z,14.00
2017-09-15T09:58:13.267Z,14.00
2017-09-15T10:00:41.556Z,14.20
2017-09-15T10:03:09.096Z,14.20
2017-09-15T10:05:37.378Z,14.50
2017-09-15T10:08:05.682Z,14.60
2017-09-15T10:10:33.202Z,14.60
2017-09-15T10:13:00.742Z,14.70
2017-09-15T10:15:28.264Z,14.80
2017-09-15T10:17:55.808Z,14.80
2017-09-15T10:20:23.330Z,14.90
2017-09-15T10:22:50.862Z,14.80
2017-09-15T10:25:18.385Z,14.70
2017-09-15T10:27:45.928Z,14.80
2017-09-15T10:30:14.222Z,15.20
2017-09-15T10:32:41.764Z,15.20
2017-09-15T10:35:09.289Z,15.30
2017-09-15T10:37:36.828Z,15.30
2017-09-15T10:40:04.342Z,15.20
2017-09-15T10:42:31.882Z,15.20
2017-09-15T10:44:59.404Z,15.50
2017-09-15T10:47:26.942Z,16.10
2017-09-15T10:49:55.220Z,17.10
2017-09-15T10:52:23.524Z,17.60
2017-09-15T10:54:51.055Z,17.60
2017-09-15T10:57:18.595Z,18.30
2017-09-15T10:59:51.707Z,19.00
2017-09-15T11:02:19.247Z,19.30
2017-09-15T11:04:46.761Z,18.70
2017-09-15T11:07:15.062Z,19.20
2017-09-15T11:09:42.578Z,19.20
2017-09-15T11:12:10.879Z,18.30
2017-09-15T11:14:38.403Z,18.20
2017-09-15T11:17:05.942Z,18.10
2017-09-15T11:19:33.463Z,18.30
2017-09-15T11:22:00.998Z,18.40
2017-09-15T11:24:29.288Z,17.90
2017-09-15T11:26:56.827Z,17.90
2017-09-15T11:29:25.120Z,17.40
2017-09-15T11:31:52.659Z,17.40
2017-09-15T11:34:20.943Z,16.60
2017-09-15T11:36:49.246Z,16.10
2017-09-15T11:39:16.768Z,16.10
2017-09-15T11:41:44.303Z,15.80
2017-09-15T11:44:12.593Z,15.40
2017-09-15T11:46:40.138Z,15.40
2017-09-15T11:49:08.423Z,15.30
2017-09-15T11:51:36.722Z,15.50
2017-09-15T11:54:04.240Z,15.50
2017-09-15T11:56:31.782Z,15.80
2017-09-15T11:58:59.309Z,16.00
2017-09-15T12:01:26.852Z,16.40
2017-09-15T12:03:54.366Z,16.90
2017-09-15T12:06:21.905Z,17.30
2017-09-15T12:08:49.422Z,17.40
2017-09-15T12:11:16.950Z,17.30
2017-09-15T12:13:44.496Z,17.20
2017-09-15T12:16:12.777Z,17.50
2017-09-15T12:18:41.082Z,17.70
2017-09-15T12:21:08.603Z,17.70
2017-09-15T12:23:36.908Z,17.60
2017-09-15T12:26:04.425Z,17.60
2017-09-15T12:28:31.958Z,17.50
2017-09-15T12:30:59.482Z,17.70
2017-09-15T12:33:27.019Z,17.70
2017-09-15T12:35:54.539Z,17.40
2017-09-15T12:38:22.083Z,17.00
2017-09-15T12:40:50.363Z,16.40
2017-09-15T12:43:17.903Z,16.40
2017-09-15T12:45:46.192Z,16.60
2017-09-15T12:48:14.492Z,16.70
2017-09-15T12:50:42.013Z,16.70
2017-09-15T12:53:09.553Z,16.70
2017-09-15T12:55:37.075Z,16.80
2017-09-15T12:58:04.619Z,16.70
2017-09-15T13:00:32.133Z,16.80
2017-09-15T13:02:59.669Z,16.80
2017-09-15T13:05:27.191Z,16.80
2017-09-15T13:07:54.727Z,16.60
2017-09-15T13:10:22.247Z,16.80
2017-09-15T13:12:49.784Z,16.90
2017-09-15T13:15:17.302Z,17.00
2017-09-15T13:17:44.845Z,17.00
2017-09-15T13:20:12.409Z,17.00
2017-09-15T13:22:39.941Z,17.20
2017-09-15T13:25:08.226Z,17.10
2017-09-15T13:27:35.763Z,17.00
2017-09-15T13:30:04.052Z,17.30
2017-09-15T13:32:32.351Z,17.30
2017-09-15T13:34:59.881Z,17.30
2017-09-15T13:37:28.187Z,17.10
2017-09-15T13:39:55.710Z,17.10
2017-09-15T13:42:23.256Z,17.20
2017-09-15T13:44:50.783Z,17.10
2017-09-15T13:47:18.335Z,16.90
2017-09-15T13:49:45.866Z,16.70
2017-09-15T13:52:14.155Z,16.10
2017-09-15T13:54:41.690Z,16.10
2017-09-15T13:57:09.971Z,15.50
2017-09-15T13:59:38.271Z,15.50
2017-09-15T14:02:05.795Z,15.40
2017-09-15T14:04:33.331Z,15.30
2017-09-15T14:07:01.610Z,15.60
2017-09-15T14:09:29.141Z,15.50
2017-09-15T14:11:56.672Z,15.70
2017-09-15T14:14:24.207Z,15.80
2017-09-15T14:16:51.726Z,16.10
2017-09-15T14:19:20.031Z,16.90
2017-09-15T14:21:47.551Z,16.90
2017-09-15T14:24:15.070Z,17.20
2017-09-15T14:26:42.615Z,17.50
2017-09-15T14:29:10.135Z,17.40
2017-09-15T14:31:37.674Z,17.40
2017-09-15T14:34:05.197Z,17.10
2017-09-15T14:36:32.743Z,16.60
2017-09-15T14:39:00.259Z,16.10
2017-09-15T14:41:27.803Z,15.80
2017-09-15T14:43:55.327Z,15.50
2017-09-15T14:46:22.868Z,15.20
2017-09-15T14:48:51.154Z,14.80
2017-09-15T14:51:19.479Z,14.70
2017-09-15T14:53:47.436Z,14.70
2017-09-15T14:56:14.962Z,14.60
2017-09-15T14:58:43.271Z,14.30
2017-09-15T15:01:10.787Z,14.20
2017-09-15T15:03:39.097Z,14.00
2017-09-15T15:06:06.615Z,14.00
2017-09-15T15:08:34.158Z,13.70
2017-09-15T15:11:01.682Z,13.30
2017-09-15T15:13:29.218Z,13.00
2017-09-15T15:15:56.740Z,13.00
2017-09-15T15:18:24.285Z,13.00
2017-09-15T15:20:51.802Z,12.90
2017-09-15T15:23:19.346Z,13.00
2017-09-15T15:25:46.862Z,13.00
2017-09-15T15:28:14.396Z,13.10
2017-09-15T15:30:42.697Z,13.40
2017-09-15T15:33:10.210Z,13.40
2017-09-15T15:35:37.754Z,13.60
2017-09-15T15:38:05.276Z,13.90
2017-09-15T15:40:32.813Z,14.30
2017-09-15T15:43:01.102Z,14.80
2017-09-15T15:45:28.634Z,14.80
2017-09-15T15:47:56.156Z,15.20
2017-09-15T15:50:23.702Z,15.50
2017-09-15T15:52:52.084Z,15.60
2017-09-15T15:55:19.608Z,15.40
2017-09-15T15:57:47.919Z,15.00
2017-09-15T16:00:15.438Z,15.00
2017-09-15T16:02:43.747Z,14.70
2017-09-15T16:05:11.270Z,14.70
2017-09-15T16:07:39.575Z,14.20
2017-09-15T16:10:07.091Z,14.20
2017-09-15T16:12:34.622Z,14.20
2017-09-15T16:15:02.143Z,14.30
2017-09-15T16:17:29.706Z,14.30
2017-09-15T16:19:57.223Z,14.20
2017-09-15T16:22:24.742Z,13.90
2017-09-15T16:24:52.279Z,13.70
2017-09-15T16:27:20.561Z,13.30
2017-09-15T16:29:48.099Z,13.30
2017-09-15T16:32:15.623Z,13.20
2017-09-15T16:34:43.163Z,13.10
2017-09-15T16:37:10.692Z,13.00
2017-09-15T16:39:44.618Z,12.80
2017-09-15T16:42:17.887Z,12.80
2017-09-15T16:44:51.826Z,12.70
2017-09-15T16:47:25.074Z,12.70
2017-09-15T16:49:52.126Z,12.50
2017-09-15T16:52:19.644Z,12.40
2017-09-15T16:54:47.193Z,12.40
2017-09-15T16:57:14.715Z,12.20
2017-09-15T16:59:43.014Z,12.10
2017-09-15T17:02:10.538Z,12.10
2017-09-15T17:04:38.082Z,12.10
2017-09-15T17:07:05.602Z,12.00
2017-09-15T17:09:33.118Z,12.00
2017-09-15T17:12:01.423Z,11.90
2017-09-15T17:14:28.939Z,11.80
2017-09-15T17:16:56.478Z,11.90
2017-09-15T17:19:24.002Z,11.80
2017-09-15T17:21:51.542Z,11.70
2017-09-15T17:24:19.827Z,11.60
2017-09-15T17:26:48.126Z,11.50
2017-09-15T17:29:15.641Z,11.50
2017-09-15T17:31:43.230Z,11.40
2017-09-15T17:34:10.755Z,11.30
2017-09-15T17:36:38.296Z,11.20
2017-09-15T17:39:05.819Z,11.00
2017-09-15T17:41:34.129Z,10.90
2017-09-15T17:44:01.650Z,10.80
2017-09-15T17:46:29.199Z,10.80
2017-09-15T17:48:56.756Z,10.70
2017-09-15T17:51:24.269Z,10.60
2017-09-15T17:53:51.806Z,10.50
2017-09-15T17:56:19.323Z,10.40
2017-09-15T17:58:46.864Z,10.40
2017-09-15T18:01:14.387Z,10.40
2017-09-15T18:03:41.930Z,10.30
2017-09-15T18:06:10.214Z,10.20
2017-09-15T18:08:38.517Z,10.20
2017-09-15T18:11:06.038Z,10.10
2017-09-15T18:13:34.334Z,9.90
2017-09-15T18:16:01.859Z,9.90
2017-09-15T18:18:29.415Z,9.80
2017-09-15T18:20:56.927Z,9.70
2017-09-15T18:23:24.485Z,9.70
2017-09-15T18:25:52.014Z,9.70
2017-09-15T18:28:20.300Z,9.70
2017-09-15T18:30:47.839Z,9.70
2017-09-15T18:33:15.355Z,9.70
2017-09-15T18:35:42.889Z,9.50
2017-09-15T18:38:10.407Z,9.30
2017-09-15T18:40:38.744Z,9.10
2017-09-15T18:43:06.305Z,9.10
2017-09-15T18:45:33.847Z,9.10
2017-09-15T18:48:01.362Z,9.10
2017-09-15T18:50:29.662Z,9.10
2017-09-15T18:52:57.174Z,9.10
2017-09-15T18:55:24.766Z,9.10
2017-09-15T18:57:53.046Z,9.10
2017-09-15T19:00:20.609Z,9.10
2017-09-15T19:02:48.142Z,9.00
2017-09-15T19:05:16.422Z,8.80
2017-09-15T19:07:43.954Z,8.80
2017-09-15T19:10:11.472Z,8.70
2017-09-15T19:12:39.016Z,8.70
2017-09-15T19:15:06.529Z,8.70
2017-09-15T19:17:34.067Z,8.70
2017-09-15T19:20:01.622Z,8.60
2017-09-15T19:22:29.158Z,8.60
2017-09-15T19:24:57.493Z,8.70
2017-09-15T19:27:25.073Z,8.70
2017-09-15T19:29:52.602Z,8.70
2017-09-15T19:32:20.202Z,8.70
2017-09-15T19:34:47.726Z,8.70
2017-09-15T19:37:15.241Z,8.70
2017-09-15T19:39:43.542Z,8.70
2017-09-15T19:42:11.062Z,8.70
2017-09-15T19:44:38.595Z,8.70
2017-09-15T19:47:06.106Z,8.70
2017-09-15T19:49:34.410Z,8.60
2017-09-15T19:52:01.930Z,8.60
2017-09-15T19:54:30.235Z,8.60
2017-09-15T19:56:57.759Z,8.60
2017-09-15T19:59:25.343Z,8.50
2017-09-15T20:01:52.858Z,8.50
2017-09-15T20:04:20.404Z,8.40
2017-09-15T20:06:47.941Z,8.30
2017-09-15T20:09:15.453Z,8.30
2017-09-15T20:11:42.985Z,8.30
2017-09-15T20:14:10.502Z,8.30
2017-09-15T20:16:38.036Z,8.40
2017-09-15T20:19:05.564Z,8.40
2017-09-15T20:21:33.154Z,8.40
2017-09-15T20:24:00.678Z,8.50
2017-09-15T20:26:28.245Z,8.50
2017-09-15T20:28:55.800Z,8.50
2017-09-15T20:31:23.319Z,8.50
2017-09-15T20:33:50.869Z,8.40
2017-09-15T20:36:18.389Z,8.30
2017-09-15T20:38:45.968Z,8.20
2017-09-15T20:41:14.254Z,8.10
2017-09-15T20:43:41.795Z,8.10
2017-09-15T20:46:09.310Z,8.10
2017-09-15T20:48:36.850Z,8.20
2017-09-15T20:51:04.371Z,8.20
2017-09-15T20:53:31.921Z,8.20
2017-09-15T20:55:59.446Z,8.20
2017-09-15T20:58:26.962Z,8.10
2017-09-15T21:00:54.495Z,8.00
2017-09-15T21:03:22.057Z,8.00
2017-09-15T21:05:49.598Z,8.00
2017-09-15T21:08:17.882Z,8.00
2017-09-15T21:10:46.190Z,8.00
2017-09-15T21:13:13.711Z,8.00
2017-09-15T21:15:42.056Z,8.00
2017-09-15T21:18:10.348Z,7.90
2017-09-15T21:20:37.887Z,7.90
2017-09-15T21:23:05.404Z,7.90
2017-09-15T21:25:32.958Z,7.90
2017-09-15T21:28:00.483Z,7.80
2017-09-15T21:30:28.006Z,7.80
2017-09-15T21:32:55.544Z,7.80
2017-09-15T21:35:23.063Z,7.60
2017-09-15T21:37:50.602Z,7.50
2017-09-15T21:40:18.124Z,7.50
2017-09-15T21:42:46.426Z,7.40
2017-09-15T21:45:13.942Z,7.40
2017-09-15T21:47:41.474Z,7.40
2017-09-15T21:50:08.996Z,7.40
2017-09-15T21:52:36.549Z,7.30
2017-09-15T21:55:04.067Z,7.20
2017-09-15T21:57:32.370Z,7.10
2017-09-15T21:59:59.890Z,7.00
2017-09-15T22:02:27.439Z,7.00
2017-09-15T22:04:54.955Z,7.00
2017-09-15T22:07:22.466Z,7.10
2017-09-15T22:09:49.997Z,7.10
2017-09-15T22:12:17.520Z,7.10
2017-09-15T22:14:45.065Z,7.10
2017-09-15T22:17:13.345Z,6.90
2017-09-15T22:19:41.646Z,6.90
2017-09-15T22:22:09.930Z,6.80
2017-09-15T22:24:38.238Z,6.80
2017-09-15T22:27:05.749Z,6.80
2017-09-15T22:29:34.047Z,6.80
2017-09-15T22:32:02.326Z,6.70
2017-09-15T22:34:30.631Z,6.80
2017-09-15T22:36:58.151Z,6.80
2017-09-15T22:39:26.434Z,6.80
2017-09-15T22:41:53.970Z,6.80
2017-09-15T22:44:21.486Z,6.90
2017-09-15T22:46:49.022Z,6.80
2017-09-15T22:49:16.543Z,6.80
2017-09-15T22:51:44.079Z,6.80
2017-09-15T22:54:24.222Z,6.90
2017-09-15T22:56:51.753Z,6.80
2017-09-15T22:59:19.274Z,6.90
2017-09-15T23:01:46.815Z,6.90
2017-09-15T23:04:15.109Z,6.90
2017-09-15T23:06:42.647Z,6.80
2017-09-15T23:09:10.930Z,6.80
2017-09-15T23:11:38.473Z,6.80
2017-09-15T23:14:06.759Z,6.80
2017-09-15T23:16:34.269Z,6.80
2017-09-15T23:19:01.811Z,6.80
2017-09-15T23:21:29.330Z,6.70
2017-09-15T23:23:57.630Z,6.80
2017-09-15T23:26:25.146Z,6.80
2017-09-15T23:28:52.689Z,6.80
2017-09-15T23:31:20.207Z,6.80
2017-09-15T23:33:47.752Z,6.80
2017-09-15T23:36:15.270Z,6.80
2017-09-15T23:38:42.807Z,6.80
2017-09-15T23:41:10.321Z,6.80
2017-09-15T23:43:38.623Z,6.70
2017-09-15T23:46:06.911Z,6.70
2017-09-15T23:48:35.213Z,6.60
2017-09-15T23:51:02.729Z,6.60
2017-09-15T23:53:30.242Z,6.60
2017-09-15T23:55:57.774Z,6.50
2017-09-15T23:58:25.290Z,6.50
